Time;durP1;ratioP1;P1;durP2;ratioP2;P2;SDS_P1;SDS_P2;PMS_P1;PMS_P2;Temp;Humidity;BMP_temperature;BMP_pressure;BME280_temperature;BME280_humidity;BME280_pressure;Samples;Min_cycle;Max_cycle;Signal;HPM_P1;HPM_P2
2023/07/16 00:02:05;;;;;;;11.48;3.70;;;18.20;99.90;;;;;;5032695;28;20076;-74
2023/07/16 00:04:31;;;;;;;6.93;2.90;;;18.20;99.90;;;;;;5032996;28;20072;-74
2023/07/16 00:06:59;;;;;;;11.05;3.38;;;18.20;99.90;;;;;;5032593;28;20053;-75
2023/07/16 00:09:25;;;;;;;11.35;3.35;;;18.20;99.90;;;;;;5031286;28;20434;-74
2023/07/16 00:11:50;;;;;;;7.53;3.05;;;18.20;99.90;;;;;;5032892;28;20049;-74
2023/07/16 00:14:17;;;;;;;9.15;3.25;;;18.10;99.90;;;;;;5031361;28;20076;-74
2023/07/16 00:16:43;;;;;;;9.15;3.08;;;18.10;99.90;;;;;;5032802;28;20081;-74
2023/07/16 00:19:12;;;;;;;11.82;3.17;;;18.10;99.90;;;;;;5032265;28;20088;-74
2023/07/16 00:21:38;;;;;;;13.95;3.28;;;18.00;99.90;;;;;;5031376;28;20059;-74
2023/07/16 00:24:04;;;;;;;7.05;2.72;;;18.00;99.90;;;;;;5031306;28;20049;-73
2023/07/16 00:26:30;;;;;;;9.07;2.97;;;18.00;99.90;;;;;;5032293;28;20045;-73
2023/07/16 00:28:56;;;;;;;12.45;3.25;;;17.90;99.90;;;;;;5032401;28;20475;-75
2023/07/16 00:31:22;;;;;;;11.27;3.25;;;17.90;99.90;;;;;;5014736;28;20137;-74
2023/07/16 00:33:48;;;;;;;11.40;3.15;;;17.90;99.90;;;;;;5030857;28;20045;-73
2023/07/16 00:36:13;;;;;;;12.63;3.78;;;17.90;99.90;;;;;;5031423;28;20183;-73
2023/07/16 00:38:42;;;;;;;8.80;3.03;;;17.90;99.90;;;;;;5032548;28;20088;-73
2023/07/16 00:41:08;;;;;;;9.40;3.10;;;17.90;99.90;;;;;;5014729;28;20057;-74
2023/07/16 00:43:34;;;;;;;10.25;3.75;;;17.90;99.90;;;;;;5031352;28;20057;-73
2023/07/16 00:46:00;;;;;;;8.90;3.00;;;17.90;99.90;;;;;;5031038;28;20061;-75
2023/07/16 00:48:26;;;;;;;12.23;3.40;;;17.80;99.90;;;;;;5032192;28;20046;-74
2023/07/16 00:50:53;;;;;;;13.45;3.45;;;17.80;99.90;;;;;;5048058;28;20041;-73
2023/07/16 00:53:20;;;;;;;10.95;3.85;;;17.80;99.90;;;;;;5032037;28;20071;-73
2023/07/16 00:55:46;;;;;;;14.38;3.53;;;17.80;99.90;;;;;;5031291;28;20085;-73
2023/07/16 00:58:12;;;;;;;12.05;3.60;;;17.70;99.90;;;;;;5031679;28;20045;-73
2023/07/16 01:00:39;;;;;;;9.02;3.25;;;17.70;99.90;;;;;;5036981;28;20048;-72
2023/07/16 01:03:09;;;;;;;10.00;3.22;;;17.70;99.90;;;;;;5034672;28;20046;-74
2023/07/16 01:05:49;;;;;;;10.38;3.40;;;17.70;99.90;;;;;;5031322;28;20144;-73
2023/07/16 01:08:21;;;;;;;10.85;3.00;;;17.70;99.90;;;;;;5031743;28;20053;-72
2023/07/16 01:10:48;;;;;;;16.58;3.45;;;17.60;99.90;;;;;;5032070;28;20054;-73
2023/07/16 01:13:15;;;;;;;11.57;3.70;;;17.60;99.90;;;;;;5031786;28;20041;-73
2023/07/16 01:15:40;;;;;;;9.52;3.33;;;17.60;99.90;;;;;;5031899;28;20148;-73
2023/07/16 01:18:06;;;;;;;9.27;3.20;;;17.60;99.90;;;;;;5031234;28;20133;-73
2023/07/16 01:20:32;;;;;;;10.90;3.72;;;17.60;99.90;;;;;;5031915;28;20050;-73
2023/07/16 01:23:24;;;;;;;12.40;3.78;;;17.60;99.90;;;;;;5030799;28;20049;-73
2023/07/16 01:26:11;;;;;;;11.75;3.53;;;17.60;99.90;;;;;;5030763;28;20046;-73
2023/07/16 01:28:44;;;;;;;13.18;3.92;;;17.60;99.90;;;;;;5031133;28;20053;-73
2023/07/16 01:31:11;;;;;;;13.45;3.85;;;17.60;99.90;;;;;;5031596;28;20137;-73
2023/07/16 01:33:40;;;;;;;12.15;3.70;;;17.60;99.90;;;;;;5031769;28;20425;-73
2023/07/16 01:36:08;;;;;;;11.00;3.50;;;17.60;99.90;;;;;;5031982;28;20054;-75
2023/07/16 01:38:35;;;;;;;10.93;3.95;;;17.60;99.90;;;;;;5031293;28;20049;-73
2023/07/16 01:41:02;;;;;;;9.60;3.40;;;17.60;99.90;;;;;;5035672;28;20145;-72
2023/07/16 01:43:27;;;;;;;11.18;3.60;;;17.60;99.90;;;;;;5035128;28;20211;-73
2023/07/16 01:45:53;;;;;;;9.05;3.20;;;17.70;99.90;;;;;;5035424;28;20522;-72
2023/07/16 01:48:36;;;;;;;15.65;3.80;;;17.60;99.90;;;;;;5035339;28;20147;-72
2023/07/16 01:51:03;;;;;;;11.63;3.85;;;17.60;99.90;;;;;;5034570;28;20069;-72
2023/07/16 01:53:28;;;;;;;10.27;3.60;;;17.60;99.90;;;;;;5035003;28;20080;-72
2023/07/16 01:55:54;;;;;;;14.85;3.33;;;17.60;99.90;;;;;;5035548;28;20045;-72
2023/07/16 01:58:20;;;;;;;14.55;3.83;;;17.60;99.90;;;;;;5017354;28;20052;-73
2023/07/16 02:00:48;;;;;;;10.55;3.22;;;17.60;99.90;;;;;;5035330;28;20056;-72
2023/07/16 02:03:13;;;;;;;9.93;3.58;;;17.60;99.90;;;;;;5033757;28;20167;-74
2023/07/16 02:05:40;;;;;;;12.18;3.25;;;17.60;99.90;;;;;;5034896;28;20041;-72
2023/07/16 02:08:06;;;;;;;9.13;3.10;;;17.60;99.90;;;;;;5033740;28;20064;-73
2023/07/16 02:10:31;;;;;;;9.82;2.75;;;17.50;99.90;;;;;;5033509;28;20045;-73
2023/07/16 02:12:57;;;;;;;8.70;3.20;;;17.50;99.90;;;;;;5034935;28;20108;-73
2023/07/16 02:15:23;;;;;;;10.45;3.00;;;17.50;99.90;;;;;;5034474;28;20075;-73
2023/07/16 02:17:49;;;;;;;11.52;4.00;;;17.50;99.90;;;;;;5034073;28;20053;-73
2023/07/16 02:20:14;;;;;;;8.32;2.90;;;17.40;99.90;;;;;;5033612;28;20093;-74
2023/07/16 02:22:40;;;;;;;11.98;3.38;;;17.50;99.90;;;;;;5034883;28;20049;-72
2023/07/16 02:25:06;;;;;;;12.15;3.67;;;17.40;99.90;;;;;;5034956;28;20042;-72
2023/07/16 02:27:32;;;;;;;12.45;3.45;;;17.40;99.90;;;;;;5034588;28;20057;-73
2023/07/16 02:29:58;;;;;;;11.77;3.20;;;17.40;99.90;;;;;;5033870;28;20041;-73
2023/07/16 02:32:23;;;;;;;7.60;3.30;;;17.30;99.90;;;;;;5034191;28;20050;-73
2023/07/16 02:34:49;;;;;;;10.15;3.60;;;17.30;99.90;;;;;;5034681;28;20340;-73
2023/07/16 02:37:15;;;;;;;7.57;3.35;;;17.30;99.90;;;;;;5034434;28;20041;-75
2023/07/16 02:39:45;;;;;;;10.98;3.42;;;17.30;99.90;;;;;;5034531;28;20045;-74
2023/07/16 02:42:10;;;;;;;9.82;3.30;;;17.30;99.90;;;;;;5034584;28;20131;-74
2023/07/16 02:44:41;;;;;;;12.65;3.58;;;17.30;99.90;;;;;;5033624;28;20037;-75
2023/07/16 02:47:07;;;;;;;14.40;4.03;;;17.30;99.90;;;;;;5017797;28;20057;-73
2023/07/16 02:49:33;;;;;;;10.75;4.22;;;17.30;99.90;;;;;;5033005;28;20364;-73
2023/07/16 02:51:59;;;;;;;13.65;4.40;;;17.30;99.90;;;;;;5033425;28;20100;-73
2023/07/16 02:54:24;;;;;;;10.95;3.95;;;17.30;99.90;;;;;;5033817;28;20045;-73
2023/07/16 02:56:50;;;;;;;9.43;3.85;;;17.30;99.90;;;;;;5033307;28;20045;-73
2023/07/16 02:59:16;;;;;;;11.52;4.40;;;17.30;99.90;;;;;;5034073;28;20095;-73
2023/07/16 03:01:41;;;;;;;8.00;3.65;;;17.30;99.90;;;;;;5032545;28;20360;-74
2023/07/16 03:04:07;;;;;;;6.70;3.35;;;17.30;99.90;;;;;;5034207;28;20475;-74
2023/07/16 03:06:33;;;;;;;8.98;4.28;;;17.30;99.90;;;;;;5032787;28;20553;-73
2023/07/16 03:08:58;;;;;;;12.27;4.25;;;17.40;99.90;;;;;;5032075;28;20061;-74
2023/07/16 03:11:24;;;;;;;8.45;3.72;;;17.40;99.90;;;;;;5015683;28;20049;-75
2023/07/16 03:13:50;;;;;;;12.23;4.78;;;17.30;99.90;;;;;;4999659;28;20163;-74
2023/07/16 03:16:15;;;;;;;8.75;4.07;;;17.30;99.90;;;;;;5032418;28;20045;-74
2023/07/16 03:18:41;;;;;;;11.43;4.30;;;17.30;99.90;;;;;;5032975;28;20053;-73
2023/07/16 03:21:07;;;;;;;9.00;3.83;;;17.20;99.90;;;;;;5033320;28;20051;-74
2023/07/16 03:23:33;;;;;;;13.10;4.45;;;17.20;99.90;;;;;;5032025;28;20390;-72
2023/07/16 03:25:58;;;;;;;11.32;4.15;;;17.20;99.90;;;;;;5035874;28;20056;-72
2023/07/16 03:28:24;;;;;;;12.02;3.83;;;17.20;99.90;;;;;;5035161;28;20048;-74
2023/07/16 03:30:51;;;;;;;13.35;4.07;;;17.20;99.90;;;;;;5033377;28;20129;-74
2023/07/16 03:33:17;;;;;;;10.55;4.13;;;17.20;99.90;;;;;;5033262;28;20056;-74
2023/07/16 03:35:44;;;;;;;16.17;4.45;;;17.20;99.90;;;;;;5031493;28;20045;-74
2023/07/16 03:38:11;;;;;;;10.63;4.18;;;17.20;99.90;;;;;;5033326;28;20073;-74
2023/07/16 03:40:37;;;;;;;9.63;4.05;;;17.20;99.90;;;;;;5032851;28;20053;-74
2023/07/16 03:43:02;;;;;;;12.32;4.00;;;17.20;99.90;;;;;;5032961;28;20384;-74
2023/07/16 03:45:28;;;;;;;13.20;4.35;;;17.20;99.90;;;;;;5032280;28;20067;-76
2023/07/16 03:47:54;;;;;;;12.02;4.45;;;17.20;99.90;;;;;;5033098;28;20102;-75
2023/07/16 03:50:19;;;;;;;11.32;4.10;;;17.20;99.90;;;;;;5032976;28;20497;-74
2023/07/16 03:52:45;;;;;;;12.45;4.50;;;17.20;99.90;;;;;;5032443;28;20045;-73
2023/07/16 03:55:11;;;;;;;11.43;4.40;;;17.20;99.90;;;;;;5031508;28;20108;-75
2023/07/16 03:57:37;;;;;;;14.13;4.78;;;17.20;99.90;;;;;;5031280;28;20095;-75
2023/07/16 04:00:07;;;;;;;15.73;5.18;;;17.20;99.90;;;;;;5032891;28;20089;-74
2023/07/16 04:02:33;;;;;;;12.80;4.40;;;17.20;99.90;;;;;;5031626;28;20052;-72
2023/07/16 04:04:59;;;;;;;11.05;4.78;;;17.20;99.90;;;;;;5032817;28;20045;-73
2023/07/16 04:07:25;;;;;;;10.65;4.38;;;17.20;99.90;;;;;;5031728;28;20085;-71
2023/07/16 04:09:51;;;;;;;10.60;4.43;;;17.20;99.90;;;;;;5031323;28;20145;-72
2023/07/16 04:12:17;;;;;;;9.32;4.57;;;17.20;99.90;;;;;;5033027;28;20054;-73
2023/07/16 04:14:43;;;;;;;9.77;4.85;;;17.20;99.90;;;;;;5032364;28;20049;-73
2023/07/16 04:17:08;;;;;;;9.95;4.68;;;17.20;99.90;;;;;;5031495;28;20088;-73
2023/07/16 04:19:34;;;;;;;13.73;4.88;;;17.20;99.90;;;;;;5032360;28;20061;-74
2023/07/16 04:22:00;;;;;;;12.18;4.93;;;17.20;99.90;;;;;;5031577;28;20498;-73
2023/07/16 04:24:29;;;;;;;15.48;4.75;;;17.20;99.90;;;;;;5032752;28;20049;-73
2023/07/16 04:26:55;;;;;;;11.20;4.93;;;17.20;99.90;;;;;;5032415;28;20046;-73
2023/07/16 04:29:21;;;;;;;10.77;4.90;;;17.30;99.90;;;;;;5032852;28;20053;-73
2023/07/16 04:31:46;;;;;;;10.40;4.57;;;17.30;99.90;;;;;;5032209;28;20096;-73
2023/07/16 04:34:12;;;;;;;10.73;5.28;;;17.30;99.90;;;;;;5015064;28;20050;-73
2023/07/16 04:36:38;;;;;;;10.38;4.82;;;17.30;99.90;;;;;;5014410;28;20092;-73
2023/07/16 04:39:04;;;;;;;13.20;4.85;;;17.40;99.90;;;;;;5031318;28;20049;-73
2023/07/16 04:41:30;;;;;;;14.02;5.55;;;17.40;99.90;;;;;;5032391;28;20062;-75
2023/07/16 04:43:56;;;;;;;14.68;5.10;;;17.50;99.90;;;;;;5032491;28;20091;-73
2023/07/16 04:46:22;;;;;;;11.13;5.00;;;17.50;99.90;;;;;;5032454;28;20041;-72
2023/07/16 04:48:48;;;;;;;12.55;4.78;;;17.60;99.90;;;;;;5031791;28;20046;-75
2023/07/16 04:51:13;;;;;;;11.85;5.03;;;17.70;99.90;;;;;;5032080;28;20041;-73
2023/07/16 04:53:39;;;;;;;12.60;5.05;;;17.80;99.90;;;;;;5030875;28;20128;-73
2023/07/16 04:56:12;;;;;;;11.30;5.45;;;18.10;99.90;;;;;;5032316;28;20061;-74
2023/07/16 04:58:37;;;;;;;12.98;5.07;;;18.40;99.90;;;;;;5031875;28;20403;-73
2023/07/16 05:01:03;;;;;;;14.60;5.68;;;18.90;99.90;;;;;;5032222;28;20121;-73
2023/07/16 05:03:29;;;;;;;9.52;4.97;;;19.30;99.90;;;;;;5031197;28;20115;-73
2023/07/16 05:05:55;;;;;;;11.82;5.22;;;19.80;99.90;;;;;;5031626;28;20128;-73
2023/07/16 05:08:20;;;;;;;12.55;5.07;;;20.20;99.90;;;;;;5014284;28;20104;-73
2023/07/16 05:10:46;;;;;;;13.75;4.95;;;20.50;99.90;;;;;;5030505;28;20061;-73
2023/07/16 05:13:12;;;;;;;13.57;4.82;;;20.80;99.90;;;;;;5033790;28;20049;-73
2023/07/16 05:15:38;;;;;;;13.52;5.05;;;21.10;99.90;;;;;;5035642;28;20038;-77
2023/07/16 05:18:03;;;;;;;10.82;4.60;;;21.30;99.90;;;;;;5036140;28;20095;-73
2023/07/16 05:20:30;;;;;;;13.13;5.35;;;21.40;99.50;;;;;;5035979;28;20057;-73
2023/07/16 05:22:55;;;;;;;13.07;5.13;;;21.00;99.80;;;;;;5035586;28;20128;-73
2023/07/16 05:25:21;;;;;;;14.00;5.38;;;20.60;99.90;;;;;;5018512;28;20132;-73
2023/07/16 05:27:47;;;;;;;15.38;4.97;;;20.40;99.90;;;;;;5035548;28;20046;-73
2023/07/16 05:30:13;;;;;;;12.15;4.10;;;20.60;99.90;;;;;;5034738;28;20394;-73
2023/07/16 05:32:38;;;;;;;9.13;4.50;;;21.00;99.90;;;;;;5035750;28;20049;-76
2023/07/16 05:35:05;;;;;;;11.20;4.60;;;21.70;99.70;;;;;;5034501;28;20120;-73
2023/07/16 05:37:30;;;;;;;13.15;4.63;;;22.20;99.20;;;;;;5051259;28;20053;-73
2023/07/16 05:39:56;;;;;;;9.68;4.10;;;22.60;98.50;;;;;;5017960;28;20056;-73
2023/07/16 05:42:22;;;;;;;12.98;4.47;;;22.60;97.90;;;;;;5034582;28;20051;-73
2023/07/16 05:44:48;;;;;;;11.90;4.43;;;22.60;97.60;;;;;;5034069;28;20045;-72
2023/07/16 05:47:13;;;;;;;9.95;3.95;;;22.20;98.20;;;;;;5035552;28;20041;-72
2023/07/16 05:49:39;;;;;;;10.90;4.35;;;21.60;98.80;;;;;;5036178;28;20052;-73
2023/07/16 05:52:05;;;;;;;7.85;4.03;;;21.10;99.70;;;;;;5037353;28;20128;-73
2023/07/16 05:54:31;;;;;;;9.35;3.83;;;21.10;99.70;;;;;;5052240;28;20087;-73
2023/07/16 05:56:57;;;;;;;11.48;4.20;;;21.60;98.90;;;;;;5035619;28;20136;-72
2023/07/16 05:59:23;;;;;;;11.00;3.75;;;22.30;98.40;;;;;;5036130;28;20124;-73
2023/07/16 06:01:49;;;;;;;7.38;3.55;;;22.80;97.80;;;;;;5034201;28;20149;-74
2023/07/16 06:04:15;;;;;;;6.97;3.42;;;23.30;96.40;;;;;;5035657;28;20048;-74
2023/07/16 06:06:40;;;;;;;9.48;3.70;;;23.40;96.50;;;;;;5033967;28;20049;-74
2023/07/16 06:09:06;;;;;;;8.15;3.45;;;23.40;96.80;;;;;;5033340;28;20058;-75
2023/07/16 06:11:32;;;;;;;10.88;3.83;;;23.30;96.40;;;;;;5035179;28;20045;-74
2023/07/16 06:13:57;;;;;;;8.10;3.53;;;23.00;97.00;;;;;;5034720;28;20107;-73
2023/07/16 06:16:23;;;;;;;9.55;3.95;;;22.60;97.80;;;;;;5035494;28;20092;-74
2023/07/16 06:18:49;;;;;;;10.68;4.00;;;22.40;97.90;;;;;;5034598;28;20179;-74
2023/07/16 06:21:15;;;;;;;12.45;4.07;;;22.00;98.40;;;;;;5033883;28;20045;-74
2023/07/16 06:23:40;;;;;;;6.78;3.70;;;21.70;99.10;;;;;;5034886;28;20457;-73
2023/07/16 06:26:06;;;;;;;7.97;3.88;;;21.60;99.40;;;;;;5033444;28;20039;-74
2023/07/16 06:28:32;;;;;;;10.90;3.50;;;21.90;99.10;;;;;;5034841;28;20053;-73
2023/07/16 06:30:58;;;;;;;9.50;4.13;;;21.70;99.00;;;;;;5034211;28;20045;-74
2023/07/16 06:33:25;;;;;;;10.82;4.18;;;21.40;99.40;;;;;;5034196;28;20559;-74
2023/07/16 06:35:51;;;;;;;9.23;3.95;;;21.10;99.90;;;;;;5033828;28;20068;-74
2023/07/16 06:38:16;;;;;;;11.05;4.05;;;20.90;99.90;;;;;;5034439;28;20049;-73
2023/07/16 06:40:49;;;;;;;11.38;4.60;;;20.70;99.90;;;;;;5034114;28;20041;-73
2023/07/16 06:43:16;;;;;;;11.88;4.53;;;20.40;99.90;;;;;;5034254;28;20049;-74
2023/07/16 06:45:42;;;;;;;11.75;4.18;;;20.30;99.90;;;;;;5033396;28;20057;-74
2023/07/16 06:48:07;;;;;;;11.90;4.40;;;20.20;99.90;;;;;;5034002;28;20049;-74
2023/07/16 06:50:33;;;;;;;7.20;3.80;;;20.10;99.90;;;;;;5033239;28;20243;-74
2023/07/16 06:52:59;;;;;;;11.02;4.82;;;20.10;99.90;;;;;;5032552;28;20132;-73
2023/07/16 06:55:25;;;;;;;12.73;4.95;;;20.10;99.90;;;;;;5032812;28;20045;-74
2023/07/16 06:57:50;;;;;;;12.73;5.03;;;20.30;99.90;;;;;;5032327;28;20415;-76
2023/07/16 07:00:16;;;;;;;8.65;3.75;;;20.50;99.90;;;;;;5032703;28;20084;-74
2023/07/16 07:02:42;;;;;;;9.20;4.50;;;20.70;99.90;;;;;;5034140;28;20045;-73
2023/07/16 07:05:08;;;;;;;12.25;4.65;;;20.80;99.90;;;;;;5033508;28;20381;-73
2023/07/16 07:07:33;;;;;;;10.57;4.95;;;20.60;99.90;;;;;;5033071;28;20427;-72
2023/07/16 07:09:59;;;;;;;7.72;3.83;;;20.50;99.90;;;;;;5031966;28;20053;-73
2023/07/16 07:12:25;;;;;;;9.63;4.70;;;20.40;99.90;;;;;;5034024;28;20057;-74
2023/07/16 07:14:51;;;;;;;10.23;4.40;;;20.40;99.90;;;;;;5032568;28;20540;-73
2023/07/16 07:17:16;;;;;;;13.23;4.88;;;20.60;99.90;;;;;;5033356;28;20479;-72
2023/07/16 07:19:43;;;;;;;9.57;4.53;;;20.80;99.90;;;;;;5033842;28;20092;-73
2023/07/16 07:22:09;;;;;;;12.30;4.82;;;21.20;99.90;;;;;;5033044;28;20501;-74
2023/07/16 07:24:34;;;;;;;8.55;4.70;;;21.40;99.90;;;;;;5033507;28;20128;-73
2023/07/16 07:27:00;;;;;;;12.65;4.88;;;21.40;99.90;;;;;;5033017;28;20061;-74
2023/07/16 07:29:26;;;;;;;10.77;4.80;;;21.40;99.90;;;;;;5016118;28;20048;-73
2023/07/16 07:31:53;;;;;;;13.57;4.47;;;21.80;99.50;;;;;;5033464;28;20046;-74
2023/07/16 07:34:18;;;;;;;12.07;5.10;;;22.00;99.50;;;;;;5032928;28;20386;-73
2023/07/16 07:36:44;;;;;;;10.68;4.70;;;21.80;99.50;;;;;;5032097;28;20100;-73
2023/07/16 07:39:10;;;;;;;8.50;4.38;;;21.40;99.90;;;;;;5031738;28;20503;-74
2023/07/16 07:41:36;;;;;;;9.65;4.55;;;21.10;99.90;;;;;;5033302;28;20045;-73
2023/07/16 07:44:02;;;;;;;9.77;4.07;;;20.70;99.90;;;;;;5031526;28;20617;-72
2023/07/16 07:46:27;;;;;;;13.20;4.90;;;20.70;99.90;;;;;;5031710;28;20487;-71
2023/07/16 07:48:54;;;;;;;10.38;4.47;;;21.10;99.90;;;;;;5031687;28;20049;-71
2023/07/16 07:51:20;;;;;;;9.05;4.47;;;21.40;99.90;;;;;;5031462;28;20041;-71
2023/07/16 07:53:46;;;;;;;9.70;4.82;;;21.30;99.90;;;;;;5032037;28;20050;-73
2023/07/16 07:56:11;;;;;;;8.40;3.80;;;21.20;99.90;;;;;;5032546;28;20127;-71
2023/07/16 07:58:37;;;;;;;9.60;4.78;;;21.00;99.90;;;;;;5032733;28;20045;-71
2023/07/16 08:01:07;;;;;;;13.15;4.25;;;20.80;99.90;;;;;;5031794;28;20121;-71
2023/07/16 08:03:33;;;;;;;10.82;4.32;;;20.70;99.90;;;;;;5033018;28;20048;-73
2023/07/16 08:05:59;;;;;;;11.20;5.07;;;20.50;99.90;;;;;;5048416;28;20042;-71
2023/07/16 08:08:25;;;;;;;11.45;5.45;;;20.50;99.90;;;;;;5032536;28;20140;-70
2023/07/16 08:10:50;;;;;;;9.95;4.80;;;20.50;99.90;;;;;;5032403;28;20486;-70
2023/07/16 08:13:16;;;;;;;8.00;4.78;;;20.90;99.90;;;;;;5032934;28;20132;-71
2023/07/16 08:15:42;;;;;;;9.02;4.00;;;21.20;99.60;;;;;;5035235;28;20042;-71
2023/07/16 08:18:08;;;;;;;10.35;4.85;;;21.30;99.60;;;;;;5034072;28;20041;-73
2023/07/16 08:20:36;;;;;;;11.70;4.20;;;21.10;99.50;;;;;;5033026;28;20045;-73
2023/07/16 08:23:02;;;;;;;11.60;4.70;;;21.00;99.90;;;;;;5015323;28;20179;-73
2023/07/16 08:25:28;;;;;;;13.43;4.75;;;20.80;99.90;;;;;;5031988;28;20513;-74
2023/07/16 08:27:54;;;;;;;7.97;4.43;;;20.70;99.90;;;;;;5032853;28;20045;-73
2023/07/16 08:30:26;;;;;;;10.02;4.85;;;20.50;99.90;;;;;;5032719;28;20050;-74
2023/07/16 08:33:02;;;;;;;12.00;4.93;;;20.40;99.90;;;;;;5033148;28;20419;-73
2023/07/16 08:35:28;;;;;;;11.48;4.35;;;20.30;99.90;;;;;;5032298;28;20048;-72
2023/07/16 08:37:54;;;;;;;10.68;4.78;;;20.10;99.90;;;;;;5031207;28;20501;-72
2023/07/16 08:40:20;;;;;;;12.05;5.35;;;20.00;99.90;;;;;;5030584;28;20041;-73
2023/07/16 08:42:48;;;;;;;10.90;4.88;;;20.00;99.90;;;;;;5033151;28;20096;-75
2023/07/16 08:45:16;;;;;;;12.43;4.90;;;19.80;99.90;;;;;;5032532;28;20048;-74
2023/07/16 08:47:42;;;;;;;15.63;5.88;;;19.90;99.90;;;;;;5031885;28;20045;-74
2023/07/16 08:50:09;;;;;;;11.93;5.22;;;20.20;99.90;;;;;;5032084;28;20099;-76
2023/07/16 08:52:34;;;;;;;11.63;5.07;;;20.60;99.90;;;;;;5031498;28;20092;-75
2023/07/16 08:55:00;;;;;;;9.75;5.05;;;21.10;99.90;;;;;;5015052;28;20084;-73
2023/07/16 08:57:26;;;;;;;12.13;4.75;;;21.90;99.90;;;;;;5031963;28;20080;-74
2023/07/16 08:59:52;;;;;;;10.85;4.35;;;22.80;99.90;;;;;;5032296;28;20123;-74
2023/07/16 09:02:19;;;;;;;9.27;4.65;;;23.40;99.90;;;;;;5031937;28;20502;-74
2023/07/16 09:04:48;;;;;;;9.73;4.40;;;23.90;99.40;;;;;;5032257;28;20120;-74
2023/07/16 09:07:17;;;;;;;10.93;4.32;;;24.30;98.20;;;;;;5031548;28;20045;-75
2023/07/16 09:09:43;;;;;;;8.70;4.40;;;24.50;97.20;;;;;;5031640;28;20144;-75
2023/07/16 09:12:12;;;;;;;10.43;4.28;;;24.60;97.10;;;;;;5031465;28;20053;-74
2023/07/16 09:14:41;;;;;;;7.63;4.28;;;24.40;96.90;;;;;;5030625;28;20103;-74
2023/07/16 09:17:07;;;;;;;8.52;4.18;;;24.00;96.50;;;;;;5032040;28;20085;-74
2023/07/16 09:19:33;;;;;;;14.10;4.20;;;23.90;96.60;;;;;;5032103;28;20084;-74
2023/07/16 09:21:59;;;;;;;10.32;4.07;;;23.60;96.20;;;;;;5031197;28;20053;-74
2023/07/16 09:24:25;;;;;;;8.98;4.22;;;23.70;96.70;;;;;;5031147;28;20061;-74
2023/07/16 09:26:58;;;;;;;10.23;4.28;;;23.70;96.00;;;;;;5032487;28;20041;-76
2023/07/16 09:29:28;;;;;;;9.93;3.97;;;23.70;96.10;;;;;;5031743;28;20102;-75
2023/07/16 09:31:59;;;;;;;8.77;4.28;;;23.50;95.90;;;;;;5032014;28;20065;-74
2023/07/16 09:34:29;;;;;;;7.90;4.28;;;23.30;96.20;;;;;;5031426;28;20049;-75
2023/07/16 09:36:59;;;;;;;9.77;4.53;;;23.10;97.00;;;;;;5031794;28;20046;-76
2023/07/16 09:39:26;;;;;;;10.30;4.10;;;23.00;97.00;;;;;;5030272;28;20045;-76
2023/07/16 09:41:52;;;;;;;9.23;4.18;;;22.90;97.30;;;;;;5031148;28;20052;-76
2023/07/16 09:44:18;;;;;;;7.45;3.92;;;23.10;97.70;;;;;;5046964;28;20049;-77
2023/07/16 09:46:45;;;;;;;10.00;4.60;;;23.30;97.30;;;;;;5031994;28;20049;-76
2023/07/16 09:49:14;;;;;;;8.40;4.05;;;23.60;97.00;;;;;;5031905;28;20450;-76
2023/07/16 09:51:43;;;;;;;9.70;4.25;;;23.70;96.60;;;;;;5031377;28;20060;-74
2023/07/16 09:54:12;;;;;;;9.38;4.50;;;23.90;96.40;;;;;;5031809;28;20045;-76
2023/07/16 09:56:48;;;;;;;12.05;4.50;;;24.30;96.60;;;;;;5046506;28;20042;-76
2023/07/16 09:59:23;;;;;;;10.65;3.95;;;24.30;95.70;;;;;;5030801;28;20124;-77
2023/07/16 10:01:50;;;;;;;11.60;4.47;;;24.00;95.80;;;;;;5034560;28;20056;-75
2023/07/16 10:04:17;;;;;;;10.38;4.63;;;23.60;96.50;;;;;;5035452;28;20100;-76
2023/07/16 10:06:49;;;;;;;9.63;4.18;;;23.40;96.70;;;;;;5035224;28;20133;-76
2023/07/16 10:09:30;;;;;;;9.52;4.00;;;23.40;97.40;;;;;;5035189;28;20099;-76
2023/07/16 10:12:09;;;;;;;8.00;3.80;;;23.50;96.80;;;;;;5035066;28;20053;-75
2023/07/16 10:14:45;;;;;;;16.42;4.35;;;23.80;96.40;;;;;;5017515;28;20041;-77
2023/07/16 10:17:19;;;;;;;9.90;4.20;;;23.60;95.80;;;;;;5035382;28;20056;-77
2023/07/16 10:19:54;;;;;;;12.45;3.75;;;23.40;95.70;;;;;;5034023;28;20049;-76
2023/07/16 10:22:38;;;;;;;8.75;3.67;;;23.30;95.90;;;;;;5034029;28;20053;-76
2023/07/16 10:25:22;;;;;;;9.50;4.18;;;23.20;96.00;;;;;;5035286;28;20049;-77
2023/07/16 10:27:50;;;;;;;9.15;4.72;;;23.00;96.10;;;;;;5035240;28;20195;-77
2023/07/16 10:30:16;;;;;;;9.05;3.90;;;23.00;96.10;;;;;;5035253;28;20132;-77
2023/07/16 10:32:43;;;;;;;7.72;4.07;;;23.10;96.30;;;;;;5034910;28;20049;-77
2023/07/16 10:35:09;;;;;;;7.78;4.28;;;23.10;96.30;;;;;;5043844;28;20112;-76
2023/07/16 10:37:36;;;;;;;8.48;3.85;;;23.20;96.10;;;;;;5047400;28;20054;-77
2023/07/16 10:40:03;;;;;;;8.98;4.20;;;23.20;96.20;;;;;;5038491;28;20046;-76
2023/07/16 10:42:29;;;;;;;8.80;4.43;;;23.10;95.80;;;;;;5034652;28;20422;-77
2023/07/16 10:44:59;;;;;;;7.25;3.90;;;23.00;96.40;;;;;;5033753;28;20184;-76
2023/07/16 10:47:33;;;;;;;11.45;4.35;;;22.80;96.30;;;;;;5034357;28;20045;-77
2023/07/16 10:50:00;;;;;;;10.35;4.88;;;22.60;96.70;;;;;;5050376;28;20041;-77
2023/07/16 10:52:26;;;;;;;9.60;4.50;;;22.50;96.90;;;;;;5034339;28;20100;-76
2023/07/16 10:54:55;;;;;;;9.43;4.20;;;22.50;97.30;;;;;;5034535;28;20038;-76
2023/07/16 10:57:27;;;;;;;10.55;5.13;;;22.70;97.40;;;;;;5034087;28;20049;-76
2023/07/16 10:59:57;;;;;;;8.73;4.63;;;22.90;96.60;;;;;;5033971;28;20045;-76
2023/07/16 11:02:25;;;;;;;7.65;4.40;;;22.90;96.70;;;;;;5032743;28;20045;-76
2023/07/16 11:04:54;;;;;;;8.13;4.15;;;23.00;97.00;;;;;;5033728;28;20560;-75
2023/07/16 11:07:21;;;;;;;13.50;4.35;;;23.00;96.80;;;;;;5034038;28;20047;-76
2023/07/16 11:09:53;;;;;;;9.52;4.05;;;23.00;96.40;;;;;;5033649;28;20059;-78
2023/07/16 11:12:22;;;;;;;10.07;4.30;;;23.00;96.20;;;;;;5033856;28;20053;-78
2023/07/16 11:14:53;;;;;;;9.07;4.05;;;23.10;96.60;;;;;;5032338;28;20499;-79
2023/07/16 11:17:20;;;;;;;7.68;4.35;;;23.10;96.30;;;;;;5034193;28;20072;-78
2023/07/16 11:19:47;;;;;;;8.70;4.30;;;23.10;96.40;;;;;;5032791;28;20255;-79
2023/07/16 11:22:14;;;;;;;9.82;4.72;;;23.20;96.30;;;;;;5034030;28;20049;-78
2023/07/16 11:24:58;;;;;;;9.82;3.88;;;23.10;96.40;;;;;;5032593;28;20053;-79
2023/07/16 11:27:26;;;;;;;9.50;4.32;;;23.10;95.80;;;;;;5016162;28;20048;-79
2023/07/16 11:29:54;;;;;;;10.57;4.30;;;23.00;96.10;;;;;;5033991;28;20049;-79
2023/07/16 11:32:48;;;;;;;8.98;3.88;;;22.90;96.10;;;;;;5049562;28;20200;-80
2023/07/16 11:35:18;;;;;;;9.02;4.10;;;22.70;96.50;;;;;;5031430;28;20108;-81
2023/07/16 11:37:45;;;;;;;7.28;4.10;;;22.60;96.60;;;;;;5033299;28;20065;-79
2023/07/16 11:40:14;;;;;;;9.13;4.40;;;22.60;97.00;;;;;;5032773;28;20049;-80
2023/07/16 11:42:42;;;;;;;8.95;4.00;;;22.50;97.00;;;;;;5032540;28;20334;-80
2023/07/16 11:45:18;;;;;;;8.10;3.50;;;22.40;96.90;;;;;;5030668;28;20056;-80
2023/07/16 11:47:45;;;;;;;8.90;3.88;;;22.60;96.80;;;;;;5030483;28;20057;-80
2023/07/16 11:50:11;;;;;;;6.53;3.83;;;22.60;96.60;;;;;;5031049;28;20053;-79
2023/07/16 11:52:39;;;;;;;11.13;3.95;;;22.60;96.60;;;;;;5032677;28;20158;-79
2023/07/16 11:55:05;;;;;;;7.38;3.70;;;22.60;96.60;;;;;;5047717;28;20364;-80
2023/07/16 11:57:30;;;;;;;7.72;3.90;;;22.60;96.70;;;;;;5028743;28;20053;-77
2023/07/16 11:59:56;;;;;;;11.35;4.50;;;22.40;97.20;;;;;;5014225;28;20041;-79
2023/07/16 12:02:22;;;;;;;11.55;5.20;;;22.30;97.90;;;;;;5014600;28;20103;-79
2023/07/16 12:04:49;;;;;;;7.30;3.88;;;22.10;98.60;;;;;;5014840;28;20044;-80
2023/07/16 12:07:14;;;;;;;10.00;4.63;;;21.90;98.90;;;;;;4996068;28;20053;-79
2023/07/16 12:09:40;;;;;;;12.48;5.05;;;21.80;99.10;;;;;;5032162;28;20067;-79
2023/07/16 12:12:07;;;;;;;11.07;4.88;;;21.70;99.30;;;;;;5032788;28;20080;-79
2023/07/16 12:14:32;;;;;;;12.23;4.93;;;21.60;99.20;;;;;;5032630;28;20048;-78
2023/07/16 12:16:58;;;;;;;10.27;4.68;;;21.60;99.40;;;;;;5032114;28;20120;-79
2023/07/16 12:19:25;;;;;;;11.15;4.53;;;21.70;99.30;;;;;;5031647;28;20064;-79
2023/07/16 12:21:51;;;;;;;10.82;4.35;;;21.90;99.20;;;;;;5032178;28;20073;-79
2023/07/16 12:24:17;;;;;;;12.85;4.95;;;22.10;99.00;;;;;;5031450;28;20491;-80
2023/07/16 12:26:42;;;;;;;10.70;4.82;;;22.20;98.40;;;;;;5032711;28;20124;-79
2023/07/16 12:29:08;;;;;;;10.40;4.93;;;22.30;98.60;;;;;;5031256;28;20141;-79
2023/07/16 12:31:34;;;;;;;12.73;5.47;;;22.30;98.90;;;;;;5031499;28;20376;-80
2023/07/16 12:34:04;;;;;;;10.48;5.75;;;22.20;99.90;;;;;;5014734;28;20141;-79
2023/07/16 12:36:30;;;;;;;11.63;5.57;;;22.00;99.90;;;;;;5032500;28;20064;-78
2023/07/16 12:38:56;;;;;;;10.68;5.50;;;22.00;99.90;;;;;;5030940;28;20565;-78
2023/07/16 12:41:21;;;;;;;10.50;5.55;;;22.00;99.90;;;;;;5031334;28;20049;-78